createdAt,value
2022-12-31T00:01:35.842Z,4.97
2022-12-31T00:04:03.288Z,5.57
2022-12-31T00:06:32.563Z,1.13
2022-12-31T00:09:01.892Z,1.65
2022-12-31T00:11:29.967Z,4.50
2022-12-31T00:13:57.557Z,5.13
2022-12-31T00:16:39.894Z,2.13
2022-12-31T00:19:09.778Z,1.38
2022-12-31T00:21:36.947Z,2.47
2022-12-31T00:24:04.558Z,3.13
2022-12-31T00:26:33.057Z,1.30
2022-12-31T00:29:01.309Z,2.85
2022-12-31T00:31:31.553Z,3.05
2022-12-31T00:33:58.927Z,1.17
2022-12-31T00:36:31.974Z,0.40
2022-12-31T00:39:00.205Z,1.02
2022-12-31T00:41:28.203Z,2.33
2022-12-31T00:43:55.131Z,0.90
2022-12-31T00:46:22.219Z,2.78
2022-12-31T00:48:49.769Z,1.65
2022-12-31T00:51:18.532Z,3.03
2022-12-31T00:53:45.854Z,1.00
2022-12-31T00:56:16.780Z,2.33
2022-12-31T00:58:43.791Z,2.40
2022-12-31T01:01:12.850Z,8.10
2022-12-31T01:03:39.670Z,2.92
2022-12-31T01:06:06.973Z,2.92
2022-12-31T01:08:34.122Z,5.45
2022-12-31T01:11:20.603Z,2.25
2022-12-31T01:14:01.997Z,5.45
2022-12-31T01:16:34.780Z,4.07
2022-12-31T01:19:04.173Z,12.80
2022-12-31T01:21:31.359Z,4.43
2022-12-31T01:23:59.025Z,4.57
2022-12-31T01:26:26.353Z,4.45
2022-12-31T01:28:52.905Z,3.33
2022-12-31T01:31:21.299Z,3.22
2022-12-31T01:33:48.413Z,4.63
2022-12-31T01:36:25.514Z,5.78
2022-12-31T01:38:54.371Z,2.25
2022-12-31T01:41:28.176Z,5.43
2022-12-31T01:43:56.323Z,5.68
2022-12-31T01:46:44.746Z,6.15
2022-12-31T01:49:33.803Z,6.28
2022-12-31T01:52:08.862Z,2.50
2022-12-31T01:57:08.596Z,3.55
2022-12-31T01:59:35.327Z,7.97
2022-12-31T02:02:02.502Z,4.53
2022-12-31T02:04:29.833Z,5.40
2022-12-31T02:07:00.405Z,7.05
2022-12-31T02:09:27.386Z,6.82
2022-12-31T02:11:54.448Z,3.00
2022-12-31T02:14:25.862Z,4.68
2022-12-31T02:17:17.611Z,2.97
2022-12-31T02:20:09.833Z,7.18
2022-12-31T02:23:10.939Z,6.97
2022-12-31T02:26:14.996Z,7.40
2022-12-31T02:29:12.580Z,2.72
2022-12-31T02:31:48.239Z,3.53
2022-12-31T02:34:27.607Z,4.53
2022-12-31T02:36:57.724Z,4.55
2022-12-31T02:39:24.627Z,3.35
2022-12-31T02:41:51.916Z,3.53
2022-12-31T02:44:26.918Z,6.00
2022-12-31T02:49:57.816Z,6.22
2022-12-31T02:52:35.754Z,5.00
2022-12-31T02:55:22.680Z,3.25
2022-12-31T02:57:55.683Z,4.22
2022-12-31T03:00:41.518Z,1.65
2022-12-31T03:03:09.129Z,13.48
2022-12-31T03:05:41.028Z,5.82
2022-12-31T03:08:08.444Z,4.82
2022-12-31T03:10:35.440Z,3.63
2022-12-31T03:13:03.063Z,2.50
2022-12-31T03:15:32.126Z,6.80
2022-12-31T03:18:03.565Z,7.40
2022-12-31T03:21:02.958Z,3.35
2022-12-31T03:23:41.812Z,2.40
2022-12-31T03:26:11.058Z,4.05
2022-12-31T03:28:39.539Z,3.72
2022-12-31T03:31:06.954Z,4.15
2022-12-31T03:33:38.428Z,9.18
2022-12-31T03:36:14.500Z,1.50
2022-12-31T03:38:41.497Z,2.67
2022-12-31T03:41:10.800Z,7.13
2022-12-31T03:43:37.836Z,2.22
2022-12-31T03:46:04.497Z,5.20
2022-12-31T03:48:31.589Z,2.50
2022-12-31T03:50:58.612Z,4.18
2022-12-31T03:53:25.185Z,4.65
2022-12-31T03:55:55.025Z,5.70
2022-12-31T03:58:21.978Z,2.72
2022-12-31T04:00:53.108Z,4.70
2022-12-31T04:03:20.189Z,1.77
2022-12-31T04:05:53.419Z,2.67
2022-12-31T04:08:20.466Z,4.03
2022-12-31T04:10:47.075Z,3.30
2022-12-31T04:13:13.628Z,11.05
2022-12-31T04:15:40.670Z,3.20
2022-12-31T04:18:07.684Z,2.38
2022-12-31T04:20:34.235Z,2.72
2022-12-31T04:23:01.298Z,3.72
2022-12-31T04:25:27.837Z,2.80
2022-12-31T04:27:54.345Z,1.13
2022-12-31T04:30:20.919Z,5.80
2022-12-31T04:32:47.431Z,4.97
2022-12-31T04:35:14.032Z,2.08
2022-12-31T04:37:41.041Z,5.38
2022-12-31T04:40:09.277Z,1.58
2022-12-31T04:42:36.330Z,2.03
2022-12-31T04:45:03.059Z,4.30
2022-12-31T04:47:30.146Z,3.30
2022-12-31T04:49:56.703Z,1.73
2022-12-31T04:52:23.242Z,4.68
2022-12-31T04:54:49.770Z,5.30
2022-12-31T04:57:16.785Z,3.25
2022-12-31T04:59:43.329Z,4.63
2022-12-31T05:02:10.151Z,3.35
2022-12-31T05:04:36.839Z,4.70
2022-12-31T05:07:03.407Z,2.72
2022-12-31T05:09:31.226Z,3.28
2022-12-31T05:11:58.545Z,2.38
2022-12-31T05:14:25.799Z,1.83
2022-12-31T05:16:52.414Z,2.83
2022-12-31T05:19:19.131Z,2.40
2022-12-31T05:22:05.650Z,7.68
2022-12-31T05:24:32.530Z,1.95
2022-12-31T05:26:59.099Z,4.07
2022-12-31T05:29:25.708Z,8.38
2022-12-31T05:31:52.493Z,5.00
2022-12-31T05:34:19.200Z,1.23
2022-12-31T05:36:46.213Z,1.95
2022-12-31T05:39:12.751Z,0.88
2022-12-31T05:41:39.851Z,1.65
2022-12-31T05:44:06.418Z,2.25
2022-12-31T05:46:34.152Z,0.30
2022-12-31T05:49:01.721Z,0.93
2022-12-31T05:51:28.239Z,0.93
2022-12-31T05:53:54.771Z,1.00
2022-12-31T05:56:21.340Z,0.30
2022-12-31T05:58:47.874Z,0.20
2022-12-31T06:01:14.434Z,0.90
2022-12-31T06:03:44.718Z,2.38
2022-12-31T06:06:11.759Z,1.65
2022-12-31T06:08:38.973Z,0.40
2022-12-31T06:11:05.735Z,0.85
2022-12-31T06:13:32.763Z,7.43
2022-12-31T06:16:06.308Z,0.38
2022-12-31T06:18:32.925Z,0.47
2022-12-31T06:20:59.968Z,2.05
2022-12-31T06:23:27.102Z,0.50
2022-12-31T06:25:54.113Z,2.28
2022-12-31T06:28:20.870Z,0.50
2022-12-31T06:30:47.979Z,1.23
2022-12-31T06:33:14.539Z,1.20
2022-12-31T06:35:42.074Z,0.38
2022-12-31T06:38:08.702Z,1.17
2022-12-31T06:40:37.582Z,0.52
2022-12-31T06:43:04.099Z,1.15
2022-12-31T06:45:30.689Z,1.00
2022-12-31T06:47:57.186Z,2.60
2022-12-31T06:50:23.723Z,1.13
2022-12-31T06:52:50.276Z,0.90
2022-12-31T06:55:17.243Z,1.02
2022-12-31T06:57:44.883Z,0.50
2022-12-31T07:00:12.170Z,0.20
2022-12-31T07:03:11.631Z,0.68
2022-12-31T07:05:49.661Z,2.47
2022-12-31T07:08:51.578Z,0.40
2022-12-31T07:11:23.215Z,1.25
2022-12-31T07:14:01.291Z,0.10
2022-12-31T07:16:50.384Z,0.82
2022-12-31T07:19:19.871Z,0.82
2022-12-31T07:21:49.638Z,0.20
2022-12-31T07:24:17.941Z,1.52
2022-12-31T07:27:05.965Z,3.50
2022-12-31T07:29:32.975Z,0.57
2022-12-31T07:32:21.692Z,0.70
2022-12-31T07:35:16.745Z,0.93
2022-12-31T07:37:52.478Z,1.25
2022-12-31T07:40:30.202Z,1.27
2022-12-31T07:43:13.923Z,6.13
2022-12-31T07:45:40.892Z,2.45
2022-12-31T07:48:22.907Z,2.08
2022-12-31T07:50:49.811Z,1.27
2022-12-31T07:53:16.762Z,0.70
2022-12-31T07:55:43.870Z,0.82
2022-12-31T07:58:25.649Z,2.75
2022-12-31T08:00:55.684Z,0.45
2022-12-31T08:03:24.985Z,0.60
2022-12-31T08:06:09.951Z,2.47
2022-12-31T08:08:53.908Z,4.72
2022-12-31T08:11:38.040Z,1.20
2022-12-31T08:14:10.582Z,1.98
2022-12-31T08:16:37.528Z,2.05
2022-12-31T08:19:05.202Z,3.22
2022-12-31T08:21:52.598Z,3.03
2022-12-31T08:24:36.020Z,1.02
2022-12-31T08:27:12.320Z,0.77
2022-12-31T08:29:48.260Z,0.60
2022-12-31T08:32:46.979Z,2.20
2022-12-31T08:35:28.226Z,0.52
2022-12-31T08:38:26.009Z,3.08
2022-12-31T08:41:10.856Z,0.63
2022-12-31T08:44:09.500Z,1.15
2022-12-31T08:47:17.997Z,1.08
2022-12-31T08:49:44.777Z,0.30
2022-12-31T08:52:20.073Z,0.68
2022-12-31T08:54:46.815Z,2.53
2022-12-31T08:57:26.886Z,1.45
2022-12-31T08:59:58.953Z,2.08
2022-12-31T09:02:34.585Z,2.00
2022-12-31T09:05:25.155Z,4.07
2022-12-31T09:08:13.576Z,5.68
2022-12-31T09:10:40.028Z,1.83
2022-12-31T09:13:31.296Z,1.02
2022-12-31T09:16:19.633Z,2.58
2022-12-31T09:18:46.271Z,3.30
2022-12-31T09:21:14.776Z,2.10
2022-12-31T09:23:42.005Z,2.35
2022-12-31T09:26:40.423Z,7.72
2022-12-31T09:29:14.709Z,6.18
2022-12-31T09:31:58.700Z,3.85
2022-12-31T09:34:35.858Z,2.28
2022-12-31T09:37:17.877Z,5.03
2022-12-31T09:39:47.519Z,8.15
2022-12-31T09:42:38.994Z,8.18
2022-12-31T09:45:36.811Z,4.20
2022-12-31T09:48:03.839Z,1.35
2022-12-31T09:50:49.433Z,8.85
2022-12-31T09:53:39.586Z,2.50
2022-12-31T09:56:35.379Z,5.15
2022-12-31T10:01:50.351Z,3.40
2022-12-31T10:04:33.481Z,4.18
2022-12-31T10:07:12.606Z,1.85
2022-12-31T10:10:02.929Z,3.97
2022-12-31T10:12:40.594Z,12.88
2022-12-31T10:15:29.191Z,5.22
2022-12-31T10:17:59.520Z,1.17
2022-12-31T10:20:47.568Z,5.00
2022-12-31T10:23:53.219Z,5.55
2022-12-31T10:26:28.933Z,4.07
2022-12-31T10:29:09.472Z,2.97
2022-12-31T10:32:13.636Z,1.95
2022-12-31T10:35:08.229Z,3.95
2022-12-31T10:37:54.314Z,2.38
2022-12-31T10:40:53.337Z,2.70
2022-12-31T10:43:54.038Z,1.88
2022-12-31T10:46:39.102Z,6.50
2022-12-31T10:49:26.056Z,4.80
2022-12-31T10:51:59.249Z,1.88
2022-12-31T10:54:47.667Z,3.83
2022-12-31T10:57:49.347Z,2.30
2022-12-31T11:00:23.729Z,3.20
2022-12-31T11:02:53.221Z,1.83
2022-12-31T11:05:25.711Z,3.70
2022-12-31T11:08:14.047Z,1.88
2022-12-31T11:11:05.575Z,2.85
2022-12-31T11:13:42.951Z,2.50
2022-12-31T11:16:42.105Z,2.58
2022-12-31T11:19:23.593Z,2.33
2022-12-31T11:22:13.482Z,1.90
2022-12-31T11:25:12.571Z,1.27
2022-12-31T11:27:49.543Z,3.90
2022-12-31T11:30:19.439Z,4.70
2022-12-31T11:32:57.876Z,7.38
2022-12-31T11:35:32.204Z,5.63
2022-12-31T11:38:22.707Z,4.57
2022-12-31T11:40:59.963Z,2.58
2022-12-31T11:43:35.531Z,5.80
2022-12-31T11:46:20.474Z,2.22
2022-12-31T11:48:58.964Z,4.95
2022-12-31T11:52:00.649Z,2.17
2022-12-31T11:54:37.605Z,3.53
2022-12-31T11:57:28.359Z,3.22
2022-12-31T11:59:59.386Z,1.35
2022-12-31T12:02:37.487Z,1.35
2022-12-31T12:05:11.044Z,1.42
2022-12-31T12:07:38.172Z,0.97
2022-12-31T12:10:36.836Z,1.45
2022-12-31T12:13:26.047Z,1.05
2022-12-31T12:15:58.781Z,1.90
2022-12-31T12:18:34.014Z,3.45
2022-12-31T12:21:07.317Z,2.38
2022-12-31T12:23:33.942Z,1.60
2022-12-31T12:26:01.042Z,1.33
2022-12-31T12:28:30.501Z,4.05
2022-12-31T12:31:03.363Z,5.50
2022-12-31T12:33:42.098Z,3.70
2022-12-31T12:36:11.841Z,0.63
2022-12-31T12:38:39.042Z,1.05
2022-12-31T12:41:10.303Z,3.10
2022-12-31T12:43:38.187Z,1.67
2022-12-31T12:46:08.235Z,1.33
2022-12-31T12:48:39.086Z,2.22
2022-12-31T12:51:47.295Z,4.53
2022-12-31T12:54:34.291Z,2.95
2022-12-31T12:57:16.144Z,4.70
2022-12-31T13:00:15.616Z,4.97
2022-12-31T13:03:09.885Z,6.15
2022-12-31T13:06:14.127Z,5.07
2022-12-31T13:08:55.947Z,8.88
2022-12-31T13:11:33.871Z,2.97
2022-12-31T13:14:03.133Z,3.67
2022-12-31T13:16:41.831Z,3.60
2022-12-31T13:19:26.859Z,3.38
2022-12-31T13:21:57.998Z,5.10
2022-12-31T13:24:37.023Z,2.65
2022-12-31T13:27:23.889Z,6.45
2022-12-31T13:29:52.374Z,5.10
2022-12-31T13:32:28.693Z,3.60
2022-12-31T13:35:02.677Z,6.28
2022-12-31T13:37:39.607Z,5.90
2022-12-31T13:40:26.799Z,4.25
2022-12-31T13:43:00.113Z,3.88
2022-12-31T13:45:36.116Z,2.45
2022-12-31T13:48:13.258Z,2.80
2022-12-31T13:50:49.652Z,7.40
2022-12-31T13:53:32.742Z,3.85
2022-12-31T13:56:05.011Z,5.40
2022-12-31T13:58:35.663Z,7.32
2022-12-31T14:01:11.597Z,7.43
2022-12-31T14:03:40.438Z,12.52
2022-12-31T14:06:19.226Z,8.52
2022-12-31T14:08:46.089Z,6.78
2022-12-31T14:11:21.639Z,3.22
2022-12-31T14:14:12.499Z,5.75
2022-12-31T14:16:59.804Z,6.90
2022-12-31T14:20:03.716Z,5.30
2022-12-31T14:22:39.042Z,7.05
2022-12-31T14:25:18.656Z,2.95
2022-12-31T14:27:47.851Z,3.60
2022-12-31T14:30:23.241Z,6.28
2022-12-31T14:33:07.185Z,4.85
2022-12-31T14:35:47.327Z,3.33
2022-12-31T14:38:39.330Z,3.97
2022-12-31T14:41:15.877Z,3.45
2022-12-31T14:44:10.392Z,8.00
2022-12-31T14:46:49.046Z,3.60
2022-12-31T14:49:39.200Z,6.40
2022-12-31T14:52:32.285Z,3.17
2022-12-31T14:55:03.381Z,7.03
2022-12-31T14:58:16.794Z,3.80
2022-12-31T15:00:40.114Z,5.63
2022-12-31T15:03:24.354Z,3.08
2022-12-31T15:06:28.317Z,4.22
2022-12-31T15:09:13.587Z,1.83
2022-12-31T15:11:42.989Z,5.15
2022-12-31T15:14:37.410Z,4.47
2022-12-31T15:17:14.621Z,7.00
2022-12-31T15:20:02.164Z,9.05
2022-12-31T15:22:43.986Z,8.70
2022-12-31T15:25:38.656Z,6.47
2022-12-31T15:28:27.041Z,8.68
2022-12-31T15:30:56.644Z,7.60
2022-12-31T15:33:33.037Z,12.43
2022-12-31T15:36:16.519Z,7.05
2022-12-31T15:38:43.415Z,9.02
2022-12-31T15:41:16.859Z,8.43
2022-12-31T15:44:13.807Z,8.68
2022-12-31T15:46:42.684Z,9.05
2022-12-31T15:49:18.307Z,11.90
2022-12-31T15:51:50.427Z,8.32
2022-12-31T15:54:42.043Z,10.07
2022-12-31T15:57:17.934Z,13.13
2022-12-31T15:59:45.338Z,11.95
2022-12-31T16:02:21.954Z,13.73
2022-12-31T16:04:49.943Z,8.20
2022-12-31T16:07:17.832Z,12.50
2022-12-31T16:09:51.827Z,14.23
2022-12-31T16:12:27.781Z,23.13
2022-12-31T16:14:59.547Z,18.50
2022-12-31T16:17:31.472Z,12.98
2022-12-31T16:20:00.127Z,7.88
2022-12-31T16:22:37.275Z,16.92
2022-12-31T16:25:34.337Z,24.25
2022-12-31T16:27:54.169Z,11.93
2022-12-31T16:30:22.481Z,20.23
2022-12-31T16:32:51.355Z,22.17
2022-12-31T16:35:27.982Z,29.17
2022-12-31T16:38:17.427Z,27.10
2022-12-31T16:40:59.391Z,20.02
2022-12-31T16:43:27.316Z,21.25
2022-12-31T16:45:58.075Z,22.00
2022-12-31T16:48:25.123Z,13.13
2022-12-31T16:50:55.833Z,9.90
2022-12-31T16:53:26.592Z,13.52
2022-12-31T16:56:00.014Z,11.95
2022-12-31T16:58:37.253Z,17.50
2022-12-31T17:01:16.912Z,11.30
2022-12-31T17:03:58.255Z,12.05
2022-12-31T17:06:27.143Z,11.63
2022-12-31T17:08:54.839Z,26.88
2022-12-31T17:11:30.494Z,31.60
2022-12-31T17:14:06.197Z,17.80
2022-12-31T17:16:35.988Z,15.40
2022-12-31T17:19:03.391Z,20.17
2022-12-31T17:21:32.204Z,16.00
2022-12-31T17:24:06.157Z,12.90
2022-12-31T17:26:35.912Z,14.88
2022-12-31T17:29:05.910Z,16.80
2022-12-31T17:31:34.744Z,39.13
2022-12-31T17:34:21.774Z,26.35
2022-12-31T17:37:14.475Z,42.10
2022-12-31T17:39:48.464Z,17.58
2022-12-31T17:42:24.793Z,24.65
2022-12-31T17:44:56.033Z,26.83
2022-12-31T17:47:22.767Z,15.52
2022-12-31T17:49:49.475Z,25.17
2022-12-31T17:52:16.457Z,14.23
2022-12-31T17:54:43.050Z,13.93
2022-12-31T17:57:23.694Z,18.13
2022-12-31T17:59:50.778Z,14.02
2022-12-31T18:02:17.500Z,16.08
2022-12-31T18:04:44.666Z,16.88
2022-12-31T18:07:11.254Z,14.75
2022-12-31T18:09:38.295Z,12.82
2022-12-31T18:12:06.967Z,24.33
2022-12-31T18:14:34.009Z,8.75
2022-12-31T18:17:00.901Z,24.98
2022-12-31T18:20:02.962Z,13.40
2022-12-31T18:22:16.339Z,12.30
2022-12-31T18:24:43.700Z,10.75
2022-12-31T18:27:16.638Z,12.85
2022-12-31T18:29:43.695Z,25.10
2022-12-31T18:32:25.281Z,15.68
2022-12-31T18:34:52.031Z,15.38
2022-12-31T18:37:22.259Z,15.07
2022-12-31T18:39:49.781Z,10.80
2022-12-31T18:42:18.299Z,16.00
2022-12-31T18:44:46.438Z,14.40
2022-12-31T18:47:15.287Z,10.38
2022-12-31T18:49:42.153Z,11.35
2022-12-31T18:52:14.909Z,9.50
2022-12-31T18:54:42.355Z,11.10
2022-12-31T18:57:13.769Z,13.90
2022-12-31T18:59:41.275Z,10.88
2022-12-31T19:02:21.098Z,13.35
2022-12-31T19:04:48.148Z,12.80
2022-12-31T19:07:14.718Z,12.32
2022-12-31T19:09:46.327Z,10.55
2022-12-31T19:12:14.847Z,11.98
2022-12-31T19:14:41.481Z,10.10
2022-12-31T19:19:34.663Z,19.90
2022-12-31T19:22:01.543Z,14.27
2022-12-31T19:24:28.580Z,18.58
2022-12-31T19:26:55.555Z,17.48
2022-12-31T19:29:24.554Z,14.57
2022-12-31T19:31:51.793Z,13.35
2022-12-31T19:34:18.383Z,13.68
2022-12-31T19:36:45.578Z,13.00
2022-12-31T19:39:16.254Z,11.43
2022-12-31T19:41:43.743Z,13.80
2022-12-31T19:44:18.213Z,11.13
2022-12-31T19:46:46.160Z,7.72
2022-12-31T19:49:14.534Z,13.40
2022-12-31T19:51:41.727Z,24.45
2022-12-31T19:54:09.453Z,10.85
2022-12-31T19:56:36.496Z,17.85
2022-12-31T19:59:07.649Z,13.50
2022-12-31T20:01:34.919Z,11.95
2022-12-31T20:04:02.433Z,20.48
2022-12-31T20:06:29.523Z,11.77
2022-12-31T20:08:56.163Z,9.75
2022-12-31T20:11:24.442Z,13.00
2022-12-31T20:13:53.590Z,12.88
2022-12-31T20:16:23.460Z,13.40
2022-12-31T20:18:50.621Z,10.23
2022-12-31T20:21:20.399Z,13.90
2022-12-31T20:23:48.556Z,13.35
2022-12-31T20:26:15.618Z,13.00
2022-12-31T20:28:42.167Z,15.20
2022-12-31T20:31:14.473Z,10.25
2022-12-31T20:33:42.088Z,11.95
2022-12-31T20:36:11.229Z,10.50
2022-12-31T20:38:38.478Z,15.60
2022-12-31T20:41:08.044Z,16.50
2022-12-31T20:43:36.034Z,11.98
2022-12-31T20:46:15.346Z,16.00
2022-12-31T20:48:43.568Z,16.33
2022-12-31T20:51:10.603Z,9.88
2022-12-31T20:53:37.681Z,11.23
2022-12-31T20:56:09.411Z,14.35
2022-12-31T20:58:36.788Z,14.02
2022-12-31T21:01:07.833Z,14.15
2022-12-31T21:06:28.117Z,14.73
2022-12-31T21:09:01.604Z,24.33
2022-12-31T21:11:47.402Z,12.65
2022-12-31T21:14:14.386Z,14.95
2022-12-31T21:16:40.967Z,16.58
2022-12-31T21:19:07.742Z,15.25
2022-12-31T21:21:34.311Z,15.82
2022-12-31T21:24:00.907Z,16.02
2022-12-31T21:26:28.456Z,17.27
2022-12-31T21:28:55.479Z,14.25
2022-12-31T21:31:22.654Z,12.73
2022-12-31T21:33:49.268Z,12.23
2022-12-31T21:36:17.064Z,9.63
2022-12-31T21:38:44.131Z,11.68
2022-12-31T21:41:33.549Z,11.60
2022-12-31T21:44:01.753Z,14.15
2022-12-31T21:46:28.995Z,9.30
2022-12-31T21:49:00.258Z,12.00
2022-12-31T21:51:27.871Z,12.82
2022-12-31T21:53:54.494Z,18.88
2022-12-31T21:56:22.608Z,14.40
2022-12-31T21:59:13.398Z,14.52
2022-12-31T22:01:59.217Z,14.75
2022-12-31T22:05:00.901Z,12.50
2022-12-31T22:07:13.253Z,16.17
2022-12-31T22:09:39.875Z,9.48
2022-12-31T22:12:07.112Z,18.58
2022-12-31T22:14:33.652Z,15.23
2022-12-31T22:17:00.304Z,14.40
2022-12-31T22:19:26.853Z,13.70
2022-12-31T22:21:53.860Z,12.60
2022-12-31T22:24:20.859Z,13.98
2022-12-31T22:26:47.419Z,10.93
2022-12-31T22:29:14.615Z,15.93
2022-12-31T22:31:41.661Z,20.95
2022-12-31T22:34:09.030Z,11.43
2022-12-31T22:36:35.643Z,20.08
2022-12-31T22:39:02.689Z,16.13
2022-12-31T22:41:29.270Z,16.52
2022-12-31T22:44:03.208Z,23.00
2022-12-31T22:48:59.559Z,8.57
2022-12-31T22:51:55.794Z,17.80
2022-12-31T22:54:14.976Z,14.23
2022-12-31T22:56:41.831Z,11.52
2022-12-31T22:59:09.186Z,20.02
2022-12-31T23:01:36.649Z,12.90
2022-12-31T23:04:03.880Z,17.25
2022-12-31T23:06:30.902Z,25.63
2022-12-31T23:09:16.037Z,52.20
2022-12-31T23:11:45.670Z,90.75
2022-12-31T23:14:35.812Z,103.50
2022-12-31T23:17:30.485Z,168.10
2022-12-31T23:20:18.948Z,107.60
2022-12-31T23:23:05.394Z,107.45
2022-12-31T23:25:33.458Z,99.57
2022-12-31T23:28:00.516Z,104.20
2022-12-31T23:30:27.587Z,80.75
2022-12-31T23:32:54.665Z,91.07
2022-12-31T23:35:21.746Z,62.30
2022-12-31T23:37:48.803Z,66.10
2022-12-31T23:40:21.242Z,58.08
2022-12-31T23:42:49.698Z,49.53
2022-12-31T23:45:16.919Z,38.25
2022-12-31T23:47:43.975Z,51.42
2022-12-31T23:50:10.592Z,47.83
2022-12-31T23:52:37.623Z,43.85
2022-12-31T23:55:04.516Z,43.45
2022-12-31T23:57:31.111Z,41.67
2022-12-31T23:59:58.290Z,55.50
